Share

Melrose, NM

Tucumcari Municipal (KTCC) Elev 4065 ft | 35.18 °N, 103.60 °W | Change Station

Current weather conditions updated 42 minutes ago

Clear
Clear
53 °F
Feels Like 53 °F
N
16
Wind Variable Wind from SSW
Sunrise 6:16 AM
Sunset 7:30 PM
Moon Waning Gibbous

Today is forecast to be Cooler than yesterday.

Pressure 29.91 in
Visibility 10.0 miles
Clouds Clear
Dew Point 48 °F
Humidity 83%
Rainfall 0.00 in
Snow Depth Not available.
UV 0 out of 16
Pollen 8.40 out of 12
Air Quality Not available.
Flu Activity Local Activity
METAR KTCC 200953Z AUTO 21014KT 10SM CLR 12/09 A3002 RMK AO2 SLP127 T01170089

More Conditions Fewer Conditions

Pressure 29.91 in
Visibility 10.0 miles
Clouds Clear
Dew Point 48 °F
Humidity 83%
Rainfall 0.00 in
Snow Depth Not available.
UV 0 out of 16
Pollen 8.40 out of 12
Air Quality Not available.
Flu Activity Local Activity
METAR KTCC 200953Z AUTO 21014KT 10SM CLR 12/09 A3002 RMK AO2 SLP127 T01170089

More Conditions Fewer Conditions

10-Day Weather Forecast

Almanac

Astronomy

Apr. 20, 2014 Rise Set
Actual Time 6:16 AM MDT 7:30 PM MDT
Civil Twilight 5:50 AM MDT 7:56 PM MDT
Nautical Twilight 5:19 AM MDT 8:28 PM MDT
Astronomical Twilight 4:46 AM MDT 9:00 PM MDT
Moon 12:07 AM MDT 10:44 AM MDT
Length of Visible Light 14h 06m
Length of Day
13h 13m
Tomorrow will be 2m 1s longer.
Waning Gibbous, 71% of the Moon is Illuminated
Today
Waning Gibbous
Apr 22
Last Quarter
Apr 29
New
May 6
First Quarter
May 14
Full

Today's Extremes

State Highs State Lows

Community

  • Easter Greetings
    Easter Greetings
  • Sunny day at the coast-Cape Arago Lighthouse
    Sunny day at the coast-Cape Arago Lighthouse
  • Cherry Blossoms
    Cherry Blossoms
  • White-Crowned Sparrow
    White-Crowned Sparrow
  • New Day
    New Day

WunderPhotos

Upload Photos

1,703,135 photos uploaded!

WunderBlogs® & News

Nearby

Snow Depth

Station Depth Elevation
Wesner Springs 1 in 11120 ft
Santa Fe 32 in 11445 ft
Gallegos Peak 1 in 9800 ft
Tolby 0 in 10180 ft
Red River Pass #2 0 in 9850 ft

Coastal Water Temperatures

Place Temperature
No Stations Reporting

Earthquake Activity

City Distance Mag. Time & Date
No recent earthquake activity has been reported nearby.
Minimum magnitude displayed is 2.5.

Nearby Weather Stations

There are no personal weather stations in this area.

What do you think?

We're not finished. Please let us know what you like, what you don't like, and what you are still missing.